Latvian Sprint ChampionshipsShort Course (25m)
Riga (LAT)31 Oct - 1 Nov 2014
Men, 100m Breaststroke, Final,  Open
Men, 100m Breaststroke, Prelim,  Open
Men, 100m Breaststroke, Final,  Open1 Nov 2014 - 18:35TimePts.
1.MASKALENKO, Nikolajs1993LATSK Delfins59.33823
2.TITENIS, Giedrius1989LTULithuania1:00.14790
3.MJASOJEDOVS, Fjodors1994LATBJSS Ridzene-DSN1:01.21749
4.KOMARS, Deniss1997LATJelgavas SPS1:01.46740
5.FROLOVS, Andrejs1995LATSK Delfins1:01.75730
6.BOBROVS, Daniils1997LATBJSS Ridzene-ZIEP1:02.90691
7.MIKALAUSKAS, Marius1994LTUKauno SM Startas1:03.24679
8.SELI, Karel1998ESTTartu UK1:03.70665
9.IVANOVS, Artjoms1998LATSK Delfins1:03.91658
10.ROZALOVSKIS, Andrejs1992LATBJSS Ridzene-DSN1:04.09653
11.ZIBOROVS, Daniels1996LATSK Delfins1:04.97627
12.LAID, Priidik1996ESTTop Uk1:05.09623
Men, 100m Breaststroke, Prelim,  Open1 Nov 2014 - 10:41TimePts.
1.MASKALENKO, Nikolajs1993LATSK Delfins59.09833
2.TITENIS, Giedrius1989LTULithuania1:00.84763
3.MJASOJEDOVS, Fjodors1994LATBJSS Ridzene-DSN1:01.50739
4.FROLOVS, Andrejs1995LATSK Delfins1:02.10718
5.BOBROVS, Daniils1997LATBJSS Ridzene-ZIEP1:03.17682
6.KOMARS, Deniss1997LATJelgavas SPS1:03.27678
7.ROZALOVSKIS, Andrejs1992LATBJSS Ridzene-DSN1:03.31677
8.SELI, Karel1998ESTTartu UK1:03.93658
9.MIKALAUSKAS, Marius1994LTUKauno SM Startas1:03.97656
10.IVANOVS, Artjoms1998LATSK Delfins1:04.39644
11.ZIBOROVS, Daniels1996LATSK Delfins1:04.56639
12.LAID, Priidik1996ESTTop Uk1:05.56610
13.FELDBERGS, Valts1997LATBJSS Ridzene-ZIEP1:06.97572
14.AKAVANTSEV, Maksim1998ESTUK Aktiiv1:07.50559
15.MATVEJEV, Tiit1999ESTUjumise SK1:09.02523
16.ROOSE, Rudolf1997ESTTartu UK1:09.39514
17.SMIRNOVS, Marks1998LATDaugavpils BJSS1:09.42514
18.USOVS, Leonids1997LATJurmalas SS1:09.49512
19.BECIS, Sandijs1996LATJelgavas SPS1:10.14498
20.SILINS, Janis2000LATValmieras BSS1:10.34494
21.ROZALOVSKIS, Dmitrijs1996LATBJSS Ridzene-DSN1:10.47491
22.PUTNIS, Andris1996LATRezeknes BJSS1:11.41472
23.MAZURS, Arturs1997LATJelgavas SPS1:12.02460
24.LICITIS, Arturs1999LATBJSS Ridzene-DSN1:12.07459
25.CISTIAKOVAS, Jevgenijus1999LATLiepajas KSS-EZER1:12.18457
26.VERETENNIKOVS, Romans1998LATBJSS Ridzene-DSN1:12.52450
27.SANINS, Dmitrijs1997LATSK Delfins1:12.60449
28.LUCKA, Laurynas1998LTUKlaipedos Gintaro SC1:12.64448
29.LAPINS, Aleksis2000LATLiepajas KSS-EZER1:12.94443
30.ANDREJEVS, Nikita1999LATSK Delfins1:13.16439
31.VALATKEVICIUS, Saulius2000LTUKauno SM Startas1:14.75411
32.LAHERAND, Artur Thomas1998ESTUjumise SK1:14.81410
33.BELOVS, Igors1999LATBJSS Ridzene-DSN1:15.49399
34.KOSTIN, Mark1999ESTTop Uk1:15.86393
35.KOZLOVS, Niks Aleksis1998LATValmieras BSS1:15.87393
36.GELLER, Mark1999ESTTop Uk1:16.26387
37.PRIGGE, Jonas1998GERSG Aumund-Vegesack1:16.27387
38.TAMMER, Andres Aleksander2000ESTTartu UK1:16.56383
39.AKIMOVS, Miko1999LATJurmalas SS1:16.94377
40.FJODOROVS, Ilja1998LATDaugavpils BJSS1:17.54368
41.NOVICKIS, Artjoms1996LATDaugavpils BJSS1:17.87364
42.LUHALA, Andreas Ayrton2000ESTTop Uk1:17.92363
43.PORTNOJS, Klims2000LATJelgavas SPS1:18.61354
44.ZIHICS, Vladimirs1999LATBJSS Ridzene-DSN1:19.67340
45.APSITIS, Daniels Harijs2002LATBJSS Ridzene-DSN1:20.99323
46.PUTNINS, Paulis Arturs2000LATBJSS Ridzene-DSN1:23.06300
DSQSAROVS, Arturs1998LATSK Delfins1:10.24-